sensor_id;sensor_type;location;lat;lon;timestamp;P1;durP1;ratioP1;P2;durP2;ratioP2
25237;SDS011;13185;50.872;5.306;2024-01-10T00:01:17;8.33;;;5.13;;
25237;SDS011;13185;50.872;5.306;2024-01-10T00:03:43;10.80;;;4.97;;
25237;SDS011;13185;50.872;5.306;2024-01-10T00:06:09;9.20;;;5.10;;
25237;SDS011;13185;50.872;5.306;2024-01-10T00:08:35;14.00;;;5.50;;
25237;SDS011;13185;50.872;5.306;2024-01-10T00:11:01;10.47;;;5.80;;
25237;SDS011;13185;50.872;5.306;2024-01-10T00:13:26;9.83;;;5.10;;
25237;SDS011;13185;50.872;5.306;2024-01-10T00:15:53;10.87;;;5.43;;
25237;SDS011;13185;50.872;5.306;2024-01-10T00:18:18;10.00;;;5.00;;
25237;SDS011;13185;50.872;5.306;2024-01-10T00:20:44;10.40;;;4.93;;
25237;SDS011;13185;50.872;5.306;2024-01-10T00:23:09;8.13;;;4.73;;
25237;SDS011;13185;50.872;5.306;2024-01-10T00:25:35;11.23;;;5.07;;
25237;SDS011;13185;50.872;5.306;2024-01-10T00:28:00;12.43;;;5.87;;
25237;SDS011;13185;50.872;5.306;2024-01-10T00:30:26;9.30;;;5.67;;
25237;SDS011;13185;50.872;5.306;2024-01-10T00:32:51;10.60;;;5.40;;
25237;SDS011;13185;50.872;5.306;2024-01-10T00:35:17;11.40;;;4.97;;
25237;SDS011;13185;50.872;5.306;2024-01-10T00:37:42;11.27;;;5.53;;
25237;SDS011;13185;50.872;5.306;2024-01-10T00:40:08;13.63;;;5.43;;
25237;SDS011;13185;50.872;5.306;2024-01-10T00:42:34;10.90;;;6.10;;
25237;SDS011;13185;50.872;5.306;2024-01-10T00:45:00;10.90;;;5.57;;
25237;SDS011;13185;50.872;5.306;2024-01-10T00:47:26;12.70;;;5.63;;
25237;SDS011;13185;50.872;5.306;2024-01-10T00:49:51;13.77;;;5.70;;
25237;SDS011;13185;50.872;5.306;2024-01-10T00:52:17;14.23;;;6.23;;
25237;SDS011;13185;50.872;5.306;2024-01-10T00:54:42;14.00;;;6.13;;
25237;SDS011;13185;50.872;5.306;2024-01-10T00:57:09;11.83;;;5.70;;
25237;SDS011;13185;50.872;5.306;2024-01-10T00:59:35;22.23;;;8.53;;
25237;SDS011;13185;50.872;5.306;2024-01-10T01:02:00;21.37;;;8.57;;
25237;SDS011;13185;50.872;5.306;2024-01-10T01:04:26;28.80;;;9.20;;
25237;SDS011;13185;50.872;5.306;2024-01-10T01:06:51;25.97;;;9.00;;
25237;SDS011;13185;50.872;5.306;2024-01-10T01:09:17;13.50;;;7.17;;
25237;SDS011;13185;50.872;5.306;2024-01-10T01:11:43;20.07;;;7.37;;
25237;SDS011;13185;50.872;5.306;2024-01-10T01:14:08;18.20;;;6.90;;
25237;SDS011;13185;50.872;5.306;2024-01-10T01:16:34;14.10;;;7.03;;
25237;SDS011;13185;50.872;5.306;2024-01-10T01:18:59;15.87;;;7.03;;
25237;SDS011;13185;50.872;5.306;2024-01-10T01:21:25;19.77;;;6.40;;
25237;SDS011;13185;50.872;5.306;2024-01-10T01:23:50;10.47;;;5.40;;
25237;SDS011;13185;50.872;5.306;2024-01-10T01:26:16;12.83;;;5.30;;
25237;SDS011;13185;50.872;5.306;2024-01-10T01:28:41;12.27;;;6.07;;
25237;SDS011;13185;50.872;5.306;2024-01-10T01:31:07;10.37;;;5.30;;
25237;SDS011;13185;50.872;5.306;2024-01-10T01:33:32;10.90;;;5.83;;
25237;SDS011;13185;50.872;5.306;2024-01-10T01:35:58;10.33;;;5.80;;
25237;SDS011;13185;50.872;5.306;2024-01-10T01:38:24;10.20;;;4.90;;
25237;SDS011;13185;50.872;5.306;2024-01-10T01:40:49;10.47;;;5.27;;
25237;SDS011;13185;50.872;5.306;2024-01-10T01:43:18;10.10;;;5.33;;
25237;SDS011;13185;50.872;5.306;2024-01-10T01:45:47;11.47;;;5.73;;
25237;SDS011;13185;50.872;5.306;2024-01-10T01:48:17;11.43;;;5.43;;
25237;SDS011;13185;50.872;5.306;2024-01-10T01:50:44;12.63;;;5.60;;
25237;SDS011;13185;50.872;5.306;2024-01-10T01:53:10;9.80;;;5.17;;
25237;SDS011;13185;50.872;5.306;2024-01-10T01:55:37;12.80;;;5.63;;
25237;SDS011;13185;50.872;5.306;2024-01-10T01:58:03;12.27;;;5.50;;
25237;SDS011;13185;50.872;5.306;2024-01-10T02:00:29;13.03;;;6.07;;
25237;SDS011;13185;50.872;5.306;2024-01-10T02:02:56;10.03;;;5.43;;
25237;SDS011;13185;50.872;5.306;2024-01-10T02:05:24;11.87;;;5.47;;
25237;SDS011;13185;50.872;5.306;2024-01-10T02:07:50;13.87;;;5.80;;
25237;SDS011;13185;50.872;5.306;2024-01-10T02:10:15;10.33;;;5.77;;
25237;SDS011;13185;50.872;5.306;2024-01-10T02:12:41;10.83;;;5.63;;
25237;SDS011;13185;50.872;5.306;2024-01-10T02:15:07;11.37;;;5.47;;
25237;SDS011;13185;50.872;5.306;2024-01-10T02:17:32;11.63;;;6.13;;
25237;SDS011;13185;50.872;5.306;2024-01-10T02:20:10;7.47;;;5.00;;
25237;SDS011;13185;50.872;5.306;2024-01-10T02:22:36;8.73;;;4.97;;
25237;SDS011;13185;50.872;5.306;2024-01-10T02:25:03;9.67;;;5.17;;
25237;SDS011;13185;50.872;5.306;2024-01-10T02:27:31;14.20;;;5.77;;
25237;SDS011;13185;50.872;5.306;2024-01-10T02:29:57;10.90;;;5.67;;
25237;SDS011;13185;50.872;5.306;2024-01-10T02:32:25;13.93;;;6.37;;
25237;SDS011;13185;50.872;5.306;2024-01-10T02:34:51;12.37;;;5.90;;
25237;SDS011;13185;50.872;5.306;2024-01-10T02:37:16;11.30;;;5.57;;
25237;SDS011;13185;50.872;5.306;2024-01-10T02:39:42;8.77;;;5.37;;
25237;SDS011;13185;50.872;5.306;2024-01-10T02:42:07;10.97;;;5.47;;
25237;SDS011;13185;50.872;5.306;2024-01-10T02:44:33;10.77;;;5.50;;
25237;SDS011;13185;50.872;5.306;2024-01-10T02:46:58;11.57;;;6.03;;
25237;SDS011;13185;50.872;5.306;2024-01-10T02:49:24;10.47;;;5.50;;
25237;SDS011;13185;50.872;5.306;2024-01-10T02:51:49;13.20;;;6.00;;
25237;SDS011;13185;50.872;5.306;2024-01-10T02:54:15;11.70;;;5.63;;
25237;SDS011;13185;50.872;5.306;2024-01-10T02:56:40;8.73;;;5.33;;
25237;SDS011;13185;50.872;5.306;2024-01-10T02:59:05;9.53;;;5.43;;
25237;SDS011;13185;50.872;5.306;2024-01-10T03:01:31;11.23;;;5.80;;
25237;SDS011;13185;50.872;5.306;2024-01-10T03:03:57;9.13;;;5.30;;
25237;SDS011;13185;50.872;5.306;2024-01-10T03:06:22;12.97;;;5.53;;
25237;SDS011;13185;50.872;5.306;2024-01-10T03:08:48;11.07;;;6.30;;
25237;SDS011;13185;50.872;5.306;2024-01-10T03:11:15;10.10;;;5.03;;
25237;SDS011;13185;50.872;5.306;2024-01-10T03:13:40;11.07;;;5.83;;
25237;SDS011;13185;50.872;5.306;2024-01-10T03:16:08;9.63;;;5.43;;
25237;SDS011;13185;50.872;5.306;2024-01-10T03:18:34;10.70;;;5.70;;
25237;SDS011;13185;50.872;5.306;2024-01-10T03:21:00;11.40;;;5.57;;
25237;SDS011;13185;50.872;5.306;2024-01-10T03:23:25;9.20;;;5.30;;
25237;SDS011;13185;50.872;5.306;2024-01-10T03:25:52;8.43;;;5.10;;
25237;SDS011;13185;50.872;5.306;2024-01-10T03:28:18;11.03;;;6.13;;
25237;SDS011;13185;50.872;5.306;2024-01-10T03:30:43;12.77;;;5.27;;
25237;SDS011;13185;50.872;5.306;2024-01-10T03:33:09;10.53;;;5.47;;
25237;SDS011;13185;50.872;5.306;2024-01-10T03:35:35;14.37;;;7.20;;
25237;SDS011;13185;50.872;5.306;2024-01-10T03:38:00;10.70;;;5.63;;
25237;SDS011;13185;50.872;5.306;2024-01-10T03:40:26;10.50;;;6.00;;
25237;SDS011;13185;50.872;5.306;2024-01-10T03:42:51;10.60;;;5.83;;
25237;SDS011;13185;50.872;5.306;2024-01-10T03:45:18;10.87;;;5.40;;
25237;SDS011;13185;50.872;5.306;2024-01-10T03:47:51;14.43;;;5.97;;
25237;SDS011;13185;50.872;5.306;2024-01-10T03:50:17;12.50;;;6.37;;
25237;SDS011;13185;50.872;5.306;2024-01-10T03:52:46;13.27;;;5.97;;
25237;SDS011;13185;50.872;5.306;2024-01-10T03:55:12;12.30;;;5.47;;
25237;SDS011;13185;50.872;5.306;2024-01-10T03:57:41;11.40;;;6.27;;
25237;SDS011;13185;50.872;5.306;2024-01-10T04:00:07;12.33;;;6.17;;
25237;SDS011;13185;50.872;5.306;2024-01-10T04:02:34;11.07;;;6.07;;
25237;SDS011;13185;50.872;5.306;2024-01-10T04:05:02;10.07;;;5.97;;
25237;SDS011;13185;50.872;5.306;2024-01-10T04:07:30;10.33;;;5.73;;
25237;SDS011;13185;50.872;5.306;2024-01-10T04:09:56;11.07;;;6.27;;
25237;SDS011;13185;50.872;5.306;2024-01-10T04:12:21;13.27;;;6.00;;
25237;SDS011;13185;50.872;5.306;2024-01-10T04:14:47;12.37;;;6.33;;
25237;SDS011;13185;50.872;5.306;2024-01-10T04:17:12;9.20;;;5.47;;
25237;SDS011;13185;50.872;5.306;2024-01-10T04:19:38;10.17;;;6.27;;
25237;SDS011;13185;50.872;5.306;2024-01-10T04:22:03;8.07;;;5.10;;
25237;SDS011;13185;50.872;5.306;2024-01-10T04:24:29;13.40;;;6.73;;
25237;SDS011;13185;50.872;5.306;2024-01-10T04:26:54;9.77;;;5.33;;
25237;SDS011;13185;50.872;5.306;2024-01-10T04:29:20;10.63;;;6.00;;
25237;SDS011;13185;50.872;5.306;2024-01-10T04:31:45;10.83;;;5.17;;
25237;SDS011;13185;50.872;5.306;2024-01-10T04:34:11;9.83;;;5.43;;
25237;SDS011;13185;50.872;5.306;2024-01-10T04:36:36;9.90;;;5.00;;
25237;SDS011;13185;50.872;5.306;2024-01-10T04:39:02;10.20;;;5.43;;
25237;SDS011;13185;50.872;5.306;2024-01-10T04:41:27;13.10;;;5.63;;
25237;SDS011;13185;50.872;5.306;2024-01-10T04:43:53;11.33;;;5.53;;
25237;SDS011;13185;50.872;5.306;2024-01-10T04:46:18;12.33;;;5.43;;
25237;SDS011;13185;50.872;5.306;2024-01-10T04:48:44;12.07;;;5.47;;
25237;SDS011;13185;50.872;5.306;2024-01-10T04:51:09;10.53;;;5.73;;
25237;SDS011;13185;50.872;5.306;2024-01-10T04:53:35;8.90;;;5.63;;
25237;SDS011;13185;50.872;5.306;2024-01-10T04:56:00;9.53;;;5.20;;
25237;SDS011;13185;50.872;5.306;2024-01-10T04:58:26;10.73;;;6.03;;
25237;SDS011;13185;50.872;5.306;2024-01-10T05:00:52;16.17;;;5.63;;
25237;SDS011;13185;50.872;5.306;2024-01-10T05:03:17;10.57;;;5.60;;
25237;SDS011;13185;50.872;5.306;2024-01-10T05:05:43;9.83;;;5.47;;
25237;SDS011;13185;50.872;5.306;2024-01-10T05:08:08;9.90;;;5.27;;
25237;SDS011;13185;50.872;5.306;2024-01-10T05:10:34;12.07;;;5.23;;
25237;SDS011;13185;50.872;5.306;2024-01-10T05:12:59;9.93;;;4.80;;
25237;SDS011;13185;50.872;5.306;2024-01-10T05:15:25;12.70;;;5.50;;
25237;SDS011;13185;50.872;5.306;2024-01-10T05:17:50;9.50;;;5.13;;
25237;SDS011;13185;50.872;5.306;2024-01-10T05:20:16;13.70;;;5.33;;
25237;SDS011;13185;50.872;5.306;2024-01-10T05:22:41;10.13;;;5.67;;
25237;SDS011;13185;50.872;5.306;2024-01-10T05:25:07;11.93;;;5.23;;
25237;SDS011;13185;50.872;5.306;2024-01-10T05:27:33;11.40;;;5.30;;
25237;SDS011;13185;50.872;5.306;2024-01-10T05:29:59;13.17;;;5.63;;
25237;SDS011;13185;50.872;5.306;2024-01-10T05:32:25;10.47;;;5.47;;
25237;SDS011;13185;50.872;5.306;2024-01-10T05:34:56;9.43;;;5.43;;
25237;SDS011;13185;50.872;5.306;2024-01-10T05:37:21;9.20;;;5.20;;
25237;SDS011;13185;50.872;5.306;2024-01-10T05:39:47;10.87;;;5.37;;
25237;SDS011;13185;50.872;5.306;2024-01-10T05:42:12;11.60;;;6.10;;
25237;SDS011;13185;50.872;5.306;2024-01-10T05:44:39;11.00;;;5.57;;
25237;SDS011;13185;50.872;5.306;2024-01-10T05:47:05;11.97;;;5.97;;
25237;SDS011;13185;50.872;5.306;2024-01-10T05:49:31;8.33;;;4.90;;
25237;SDS011;13185;50.872;5.306;2024-01-10T05:51:58;12.47;;;5.67;;
25237;SDS011;13185;50.872;5.306;2024-01-10T05:54:24;12.30;;;6.10;;
25237;SDS011;13185;50.872;5.306;2024-01-10T05:56:50;11.57;;;6.07;;
25237;SDS011;13185;50.872;5.306;2024-01-10T05:59:16;12.67;;;5.40;;
25237;SDS011;13185;50.872;5.306;2024-01-10T06:01:42;12.90;;;6.00;;
25237;SDS011;13185;50.872;5.306;2024-01-10T06:04:07;9.27;;;4.93;;
25237;SDS011;13185;50.872;5.306;2024-01-10T06:06:33;9.80;;;5.13;;
25237;SDS011;13185;50.872;5.306;2024-01-10T06:08:59;10.00;;;5.40;;
25237;SDS011;13185;50.872;5.306;2024-01-10T06:11:25;10.93;;;5.50;;
25237;SDS011;13185;50.872;5.306;2024-01-10T06:13:50;8.57;;;4.90;;
25237;SDS011;13185;50.872;5.306;2024-01-10T06:16:16;9.67;;;5.03;;
25237;SDS011;13185;50.872;5.306;2024-01-10T06:18:41;11.33;;;5.47;;
25237;SDS011;13185;50.872;5.306;2024-01-10T06:21:07;13.03;;;6.03;;
25237;SDS011;13185;50.872;5.306;2024-01-10T06:23:33;10.77;;;5.83;;
25237;SDS011;13185;50.872;5.306;2024-01-10T06:25:58;10.57;;;5.90;;
25237;SDS011;13185;50.872;5.306;2024-01-10T06:28:24;9.70;;;5.67;;
25237;SDS011;13185;50.872;5.306;2024-01-10T06:30:50;11.07;;;5.80;;
25237;SDS011;13185;50.872;5.306;2024-01-10T06:33:15;10.07;;;5.50;;
25237;SDS011;13185;50.872;5.306;2024-01-10T06:35:41;12.33;;;6.03;;
25237;SDS011;13185;50.872;5.306;2024-01-10T06:38:10;10.17;;;6.43;;
25237;SDS011;13185;50.872;5.306;2024-01-10T06:40:36;12.20;;;7.17;;
25237;SDS011;13185;50.872;5.306;2024-01-10T06:43:04;13.70;;;6.30;;
25237;SDS011;13185;50.872;5.306;2024-01-10T06:45:30;11.77;;;5.90;;
25237;SDS011;13185;50.872;5.306;2024-01-10T06:47:55;12.53;;;6.33;;
25237;SDS011;13185;50.872;5.306;2024-01-10T06:50:21;10.07;;;5.33;;
25237;SDS011;13185;50.872;5.306;2024-01-10T06:52:47;9.37;;;5.33;;
25237;SDS011;13185;50.872;5.306;2024-01-10T06:55:13;11.50;;;5.53;;
25237;SDS011;13185;50.872;5.306;2024-01-10T06:57:39;11.80;;;6.03;;
25237;SDS011;13185;50.872;5.306;2024-01-10T07:00:05;16.20;;;6.03;;
25237;SDS011;13185;50.872;5.306;2024-01-10T07:02:36;11.17;;;5.97;;
25237;SDS011;13185;50.872;5.306;2024-01-10T07:05:03;9.93;;;6.00;;
25237;SDS011;13185;50.872;5.306;2024-01-10T07:07:32;10.80;;;6.67;;
25237;SDS011;13185;50.872;5.306;2024-01-10T07:10:00;13.33;;;6.47;;
25237;SDS011;13185;50.872;5.306;2024-01-10T07:12:26;10.80;;;5.70;;
25237;SDS011;13185;50.872;5.306;2024-01-10T07:14:51;12.23;;;5.77;;
25237;SDS011;13185;50.872;5.306;2024-01-10T07:17:17;11.10;;;5.97;;
25237;SDS011;13185;50.872;5.306;2024-01-10T07:19:42;9.90;;;5.00;;
25237;SDS011;13185;50.872;5.306;2024-01-10T07:22:08;12.40;;;6.10;;
25237;SDS011;13185;50.872;5.306;2024-01-10T07:24:35;10.93;;;5.27;;
25237;SDS011;13185;50.872;5.306;2024-01-10T07:27:01;10.73;;;5.63;;
25237;SDS011;13185;50.872;5.306;2024-01-10T07:29:26;12.93;;;5.70;;
25237;SDS011;13185;50.872;5.306;2024-01-10T07:31:52;10.60;;;5.90;;
25237;SDS011;13185;50.872;5.306;2024-01-10T07:34:18;11.63;;;5.67;;
25237;SDS011;13185;50.872;5.306;2024-01-10T07:36:43;13.27;;;5.63;;
25237;SDS011;13185;50.872;5.306;2024-01-10T07:39:09;14.60;;;7.10;;
25237;SDS011;13185;50.872;5.306;2024-01-10T07:41:34;11.77;;;5.63;;
25237;SDS011;13185;50.872;5.306;2024-01-10T07:44:00;11.70;;;5.90;;
25237;SDS011;13185;50.872;5.306;2024-01-10T07:46:25;10.33;;;5.17;;
25237;SDS011;13185;50.872;5.306;2024-01-10T07:48:52;12.63;;;5.57;;
25237;SDS011;13185;50.872;5.306;2024-01-10T07:51:17;10.80;;;6.07;;
25237;SDS011;13185;50.872;5.306;2024-01-10T07:53:44;10.80;;;6.03;;
25237;SDS011;13185;50.872;5.306;2024-01-10T07:56:10;10.13;;;5.70;;
25237;SDS011;13185;50.872;5.306;2024-01-10T07:58:38;14.93;;;6.90;;
25237;SDS011;13185;50.872;5.306;2024-01-10T08:01:03;13.00;;;6.57;;
25237;SDS011;13185;50.872;5.306;2024-01-10T08:03:29;10.73;;;5.90;;
25237;SDS011;13185;50.872;5.306;2024-01-10T08:05:55;12.03;;;5.87;;
25237;SDS011;13185;50.872;5.306;2024-01-10T08:08:21;13.00;;;6.17;;
25237;SDS011;13185;50.872;5.306;2024-01-10T08:10:46;13.87;;;6.90;;
25237;SDS011;13185;50.872;5.306;2024-01-10T08:13:12;12.20;;;6.37;;
25237;SDS011;13185;50.872;5.306;2024-01-10T08:15:37;13.03;;;6.13;;
25237;SDS011;13185;50.872;5.306;2024-01-10T08:18:03;12.87;;;6.90;;
25237;SDS011;13185;50.872;5.306;2024-01-10T08:20:28;14.43;;;6.60;;
25237;SDS011;13185;50.872;5.306;2024-01-10T08:22:54;13.53;;;6.43;;
25237;SDS011;13185;50.872;5.306;2024-01-10T08:25:20;16.53;;;6.50;;
25237;SDS011;13185;50.872;5.306;2024-01-10T08:27:49;12.07;;;6.40;;
25237;SDS011;13185;50.872;5.306;2024-01-10T08:30:14;8.77;;;5.57;;
25237;SDS011;13185;50.872;5.306;2024-01-10T08:32:40;11.50;;;5.90;;
25237;SDS011;13185;50.872;5.306;2024-01-10T08:35:06;18.47;;;6.50;;
25237;SDS011;13185;50.872;5.306;2024-01-10T08:37:34;11.57;;;5.83;;
25237;SDS011;13185;50.872;5.306;2024-01-10T08:39:59;16.10;;;6.60;;
25237;SDS011;13185;50.872;5.306;2024-01-10T08:42:31;13.47;;;5.87;;
25237;SDS011;13185;50.872;5.306;2024-01-10T08:44:57;12.87;;;6.43;;
25237;SDS011;13185;50.872;5.306;2024-01-10T08:47:22;11.93;;;5.60;;
25237;SDS011;13185;50.872;5.306;2024-01-10T08:49:48;12.40;;;6.53;;
25237;SDS011;13185;50.872;5.306;2024-01-10T08:52:13;14.27;;;6.73;;
25237;SDS011;13185;50.872;5.306;2024-01-10T08:54:38;10.53;;;6.03;;
25237;SDS011;13185;50.872;5.306;2024-01-10T08:57:04;10.67;;;5.43;;
25237;SDS011;13185;50.872;5.306;2024-01-10T08:59:29;24.63;;;8.97;;
25237;SDS011;13185;50.872;5.306;2024-01-10T09:01:55;13.33;;;6.63;;
25237;SDS011;13185;50.872;5.306;2024-01-10T09:04:21;16.17;;;7.23;;
25237;SDS011;13185;50.872;5.306;2024-01-10T09:06:46;15.33;;;6.60;;
25237;SDS011;13185;50.872;5.306;2024-01-10T09:09:12;11.40;;;6.20;;
25237;SDS011;13185;50.872;5.306;2024-01-10T09:11:40;12.20;;;6.33;;
25237;SDS011;13185;50.872;5.306;2024-01-10T09:14:06;12.47;;;5.60;;
25237;SDS011;13185;50.872;5.306;2024-01-10T09:16:32;14.23;;;6.00;;
25237;SDS011;13185;50.872;5.306;2024-01-10T09:18:57;11.23;;;5.67;;
25237;SDS011;13185;50.872;5.306;2024-01-10T09:21:26;10.70;;;6.03;;
25237;SDS011;13185;50.872;5.306;2024-01-10T09:23:52;12.80;;;6.40;;
25237;SDS011;13185;50.872;5.306;2024-01-10T09:26:18;15.30;;;7.57;;
25237;SDS011;13185;50.872;5.306;2024-01-10T09:28:44;14.33;;;6.70;;
25237;SDS011;13185;50.872;5.306;2024-01-10T09:31:09;11.10;;;5.83;;
25237;SDS011;13185;50.872;5.306;2024-01-10T09:33:35;13.63;;;6.80;;
25237;SDS011;13185;50.872;5.306;2024-01-10T09:36:00;12.67;;;6.20;;
25237;SDS011;13185;50.872;5.306;2024-01-10T09:38:26;12.93;;;6.50;;
25237;SDS011;13185;50.872;5.306;2024-01-10T09:40:52;13.73;;;7.03;;
25237;SDS011;13185;50.872;5.306;2024-01-10T09:43:27;14.87;;;6.57;;
25237;SDS011;13185;50.872;5.306;2024-01-10T09:45:54;12.73;;;6.23;;
25237;SDS011;13185;50.872;5.306;2024-01-10T09:48:23;13.40;;;7.27;;
25237;SDS011;13185;50.872;5.306;2024-01-10T09:50:50;14.73;;;6.23;;
25237;SDS011;13185;50.872;5.306;2024-01-10T09:53:23;18.43;;;6.20;;
25237;SDS011;13185;50.872;5.306;2024-01-10T09:55:51;11.17;;;6.30;;
25237;SDS011;13185;50.872;5.306;2024-01-10T09:58:17;13.00;;;7.17;;
25237;SDS011;13185;50.872;5.306;2024-01-10T10:00:43;12.90;;;6.03;;
25237;SDS011;13185;50.872;5.306;2024-01-10T10:03:09;14.43;;;6.93;;
25237;SDS011;13185;50.872;5.306;2024-01-10T10:05:38;12.30;;;6.47;;
25237;SDS011;13185;50.872;5.306;2024-01-10T10:08:10;10.43;;;5.87;;
25237;SDS011;13185;50.872;5.306;2024-01-10T10:10:37;11.47;;;6.57;;
25237;SDS011;13185;50.872;5.306;2024-01-10T10:13:08;12.77;;;6.27;;
25237;SDS011;13185;50.872;5.306;2024-01-10T10:15:37;11.10;;;6.23;;
25237;SDS011;13185;50.872;5.306;2024-01-10T10:18:03;13.10;;;6.17;;
25237;SDS011;13185;50.872;5.306;2024-01-10T10:20:30;12.23;;;6.43;;
25237;SDS011;13185;50.872;5.306;2024-01-10T10:23:07;11.73;;;6.53;;
25237;SDS011;13185;50.872;5.306;2024-01-10T10:25:44;14.37;;;6.40;;
25237;SDS011;13185;50.872;5.306;2024-01-10T10:28:11;10.60;;;5.38;;
25237;SDS011;13185;50.872;5.306;2024-01-10T10:30:36;11.43;;;6.10;;
25237;SDS011;13185;50.872;5.306;2024-01-10T10:33:02;13.20;;;5.40;;
25237;SDS011;13185;50.872;5.306;2024-01-10T10:35:28;10.60;;;6.80;;
25237;SDS011;13185;50.872;5.306;2024-01-10T10:37:54;13.43;;;6.73;;
25237;SDS011;13185;50.872;5.306;2024-01-10T10:40:20;15.20;;;6.33;;
25237;SDS011;13185;50.872;5.306;2024-01-10T10:42:47;11.07;;;6.03;;
25237;SDS011;13185;50.872;5.306;2024-01-10T10:45:15;13.93;;;7.53;;
25237;SDS011;13185;50.872;5.306;2024-01-10T10:47:45;15.13;;;7.70;;
25237;SDS011;13185;50.872;5.306;2024-01-10T10:50:23;12.33;;;6.50;;
25237;SDS011;13185;50.872;5.306;2024-01-10T10:52:51;11.00;;;6.27;;
25237;SDS011;13185;50.872;5.306;2024-01-10T10:55:17;11.13;;;6.43;;
25237;SDS011;13185;50.872;5.306;2024-01-10T10:57:47;12.43;;;6.33;;
25237;SDS011;13185;50.872;5.306;2024-01-10T11:00:14;11.73;;;5.93;;
25237;SDS011;13185;50.872;5.306;2024-01-10T11:02:41;14.27;;;6.70;;
25237;SDS011;13185;50.872;5.306;2024-01-10T11:05:07;9.37;;;5.70;;
25237;SDS011;13185;50.872;5.306;2024-01-10T11:07:39;13.57;;;6.60;;
25237;SDS011;13185;50.872;5.306;2024-01-10T11:10:08;13.77;;;6.63;;
25237;SDS011;13185;50.872;5.306;2024-01-10T11:18:22;12.07;;;6.70;;
25237;SDS011;13185;50.872;5.306;2024-01-10T11:23:38;16.73;;;7.17;;
25237;SDS011;13185;50.872;5.306;2024-01-10T11:26:14;12.00;;;6.53;;
25237;SDS011;13185;50.872;5.306;2024-01-10T11:28:41;13.70;;;6.40;;
25237;SDS011;13185;50.872;5.306;2024-01-10T11:31:07;12.60;;;6.77;;
25237;SDS011;13185;50.872;5.306;2024-01-10T11:33:34;13.50;;;6.77;;
25237;SDS011;13185;50.872;5.306;2024-01-10T11:38:43;14.63;;;8.00;;
25237;SDS011;13185;50.872;5.306;2024-01-10T11:41:15;13.70;;;6.90;;
25237;SDS011;13185;50.872;5.306;2024-01-10T11:43:46;13.40;;;6.80;;
25237;SDS011;13185;50.872;5.306;2024-01-10T11:46:31;14.27;;;6.77;;
25237;SDS011;13185;50.872;5.306;2024-01-10T11:48:58;14.27;;;6.53;;
25237;SDS011;13185;50.872;5.306;2024-01-10T11:51:24;14.07;;;6.90;;
25237;SDS011;13185;50.872;5.306;2024-01-10T11:53:49;13.23;;;6.20;;
25237;SDS011;13185;50.872;5.306;2024-01-10T11:56:17;13.90;;;6.93;;
25237;SDS011;13185;50.872;5.306;2024-01-10T11:59:02;12.10;;;6.17;;
25237;SDS011;13185;50.872;5.306;2024-01-10T12:01:29;16.63;;;6.70;;
25237;SDS011;13185;50.872;5.306;2024-01-10T12:03:55;13.37;;;6.73;;
25237;SDS011;13185;50.872;5.306;2024-01-10T12:06:22;12.63;;;6.77;;
25237;SDS011;13185;50.872;5.306;2024-01-10T12:08:50;12.87;;;6.83;;
25237;SDS011;13185;50.872;5.306;2024-01-10T12:11:16;14.33;;;7.37;;
25237;SDS011;13185;50.872;5.306;2024-01-10T12:13:42;15.20;;;7.77;;
25237;SDS011;13185;50.872;5.306;2024-01-10T12:16:08;17.90;;;7.97;;
25237;SDS011;13185;50.872;5.306;2024-01-10T12:18:35;13.70;;;7.37;;
25237;SDS011;13185;50.872;5.306;2024-01-10T12:21:00;16.37;;;7.93;;
25237;SDS011;13185;50.872;5.306;2024-01-10T12:23:26;14.87;;;7.67;;
25237;SDS011;13185;50.872;5.306;2024-01-10T12:25:56;17.83;;;8.67;;
25237;SDS011;13185;50.872;5.306;2024-01-10T12:28:30;12.45;;;6.78;;
25237;SDS011;13185;50.872;5.306;2024-01-10T12:30:56;16.67;;;7.37;;
25237;SDS011;13185;50.872;5.306;2024-01-10T12:33:22;12.47;;;6.87;;
25237;SDS011;13185;50.872;5.306;2024-01-10T12:36:04;17.70;;;7.43;;
25237;SDS011;13185;50.872;5.306;2024-01-10T12:38:35;11.82;;;6.95;;
25237;SDS011;13185;50.872;5.306;2024-01-10T12:41:01;12.07;;;7.17;;
25237;SDS011;13185;50.872;5.306;2024-01-10T12:43:28;12.47;;;6.93;;
25237;SDS011;13185;50.872;5.306;2024-01-10T12:46:12;20.00;;;8.60;;
25237;SDS011;13185;50.872;5.306;2024-01-10T12:48:39;13.63;;;7.40;;
25237;SDS011;13185;50.872;5.306;2024-01-10T12:51:09;13.57;;;7.47;;
25237;SDS011;13185;50.872;5.306;2024-01-10T12:53:38;12.60;;;7.30;;
25237;SDS011;13185;50.872;5.306;2024-01-10T12:56:05;15.50;;;7.93;;
25237;SDS011;13185;50.872;5.306;2024-01-10T12:58:32;13.87;;;7.80;;
25237;SDS011;13185;50.872;5.306;2024-01-10T13:01:00;13.40;;;7.17;;
25237;SDS011;13185;50.872;5.306;2024-01-10T13:03:25;14.60;;;7.93;;
25237;SDS011;13185;50.872;5.306;2024-01-10T13:05:51;14.40;;;7.37;;
25237;SDS011;13185;50.872;5.306;2024-01-10T13:08:19;14.70;;;7.70;;
25237;SDS011;13185;50.872;5.306;2024-01-10T13:10:45;15.40;;;8.13;;
25237;SDS011;13185;50.872;5.306;2024-01-10T13:13:12;12.90;;;7.30;;
25237;SDS011;13185;50.872;5.306;2024-01-10T13:15:38;13.63;;;8.33;;
25237;SDS011;13185;50.872;5.306;2024-01-10T13:18:04;12.50;;;7.53;;
25237;SDS011;13185;50.872;5.306;2024-01-10T13:20:29;13.83;;;7.97;;
25237;SDS011;13185;50.872;5.306;2024-01-10T13:22:55;12.20;;;7.07;;
25237;SDS011;13185;50.872;5.306;2024-01-10T13:25:21;13.97;;;7.33;;
25237;SDS011;13185;50.872;5.306;2024-01-10T13:27:49;13.20;;;8.07;;
25237;SDS011;13185;50.872;5.306;2024-01-10T13:30:16;15.70;;;7.27;;
25237;SDS011;13185;50.872;5.306;2024-01-10T13:32:43;13.90;;;8.50;;
25237;SDS011;13185;50.872;5.306;2024-01-10T13:35:09;12.67;;;7.47;;
25237;SDS011;13185;50.872;5.306;2024-01-10T13:37:37;13.43;;;8.10;;
25237;SDS011;13185;50.872;5.306;2024-01-10T13:40:03;18.00;;;8.17;;
25237;SDS011;13185;50.872;5.306;2024-01-10T13:42:31;13.93;;;8.27;;
25237;SDS011;13185;50.872;5.306;2024-01-10T13:44:58;14.80;;;8.43;;
25237;SDS011;13185;50.872;5.306;2024-01-10T13:47:23;12.77;;;7.57;;
25237;SDS011;13185;50.872;5.306;2024-01-10T13:49:49;20.27;;;8.53;;
25237;SDS011;13185;50.872;5.306;2024-01-10T13:52:15;14.63;;;8.20;;
25237;SDS011;13185;50.872;5.306;2024-01-10T13:54:40;16.20;;;8.17;;
25237;SDS011;13185;50.872;5.306;2024-01-10T13:57:07;15.63;;;8.43;;
25237;SDS011;13185;50.872;5.306;2024-01-10T13:59:33;15.10;;;8.47;;
25237;SDS011;13185;50.872;5.306;2024-01-10T14:01:58;12.23;;;7.83;;
25237;SDS011;13185;50.872;5.306;2024-01-10T14:04:24;14.57;;;8.20;;
25237;SDS011;13185;50.872;5.306;2024-01-10T14:06:50;15.60;;;8.30;;
25237;SDS011;13185;50.872;5.306;2024-01-10T14:09:15;17.90;;;9.00;;
25237;SDS011;13185;50.872;5.306;2024-01-10T14:11:43;16.50;;;8.40;;
25237;SDS011;13185;50.872;5.306;2024-01-10T14:14:10;15.00;;;8.37;;
25237;SDS011;13185;50.872;5.306;2024-01-10T14:16:35;17.27;;;9.17;;
25237;SDS011;13185;50.872;5.306;2024-01-10T14:19:01;15.13;;;9.10;;
25237;SDS011;13185;50.872;5.306;2024-01-10T14:21:27;16.63;;;8.13;;
25237;SDS011;13185;50.872;5.306;2024-01-10T14:23:53;14.27;;;8.13;;
25237;SDS011;13185;50.872;5.306;2024-01-10T14:26:18;16.17;;;8.40;;
25237;SDS011;13185;50.872;5.306;2024-01-10T14:28:44;19.20;;;8.83;;
25237;SDS011;13185;50.872;5.306;2024-01-10T14:31:09;16.43;;;8.43;;
25237;SDS011;13185;50.872;5.306;2024-01-10T14:33:39;22.83;;;8.87;;
25237;SDS011;13185;50.872;5.306;2024-01-10T14:36:05;14.73;;;8.47;;
25237;SDS011;13185;50.872;5.306;2024-01-10T14:38:30;17.07;;;8.77;;
25237;SDS011;13185;50.872;5.306;2024-01-10T14:40:56;17.20;;;8.67;;
25237;SDS011;13185;50.872;5.306;2024-01-10T14:43:22;17.20;;;9.17;;